Time;durP1;ratioP1;P1;durP2;ratioP2;P2;SDS_P1;SDS_P2;PMS_P1;PMS_P2;Temp;Humidity;BMP_temperature;BMP_pressure;BME280_temperature;BME280_humidity;BME280_pressure;Samples;Min_cycle;Max_cycle;Signal;HPM_P1;HPM_P2
2022/11/26 00:00:44;;;;;;;173.43;72.50;;;1.90;99.90;;;;;;5034207;28;20100;-70
2022/11/26 00:03:11;;;;;;;144.27;66.47;;;1.90;99.90;;;;;;5034148;28;20101;-70
2022/11/26 00:05:37;;;;;;;150.77;63.72;;;1.90;99.90;;;;;;5049650;28;20056;-73
2022/11/26 00:08:03;;;;;;;172.52;68.75;;;1.90;99.90;;;;;;5068443;28;20056;-70
2022/11/26 00:10:34;;;;;;;136.27;64.47;;;1.90;99.90;;;;;;5052515;28;20562;-73
2022/11/26 00:13:00;;;;;;;179.95;70.57;;;1.90;99.90;;;;;;5053969;28;20029;-69
2022/11/26 00:15:29;;;;;;;158.02;68.90;;;2.00;99.90;;;;;;5053764;28;20017;-73
2022/11/26 00:17:56;;;;;;;136.05;63.22;;;2.00;99.90;;;;;;5053888;28;20099;-69
2022/11/26 00:20:27;;;;;;;142.35;60.65;;;2.00;99.90;;;;;;5053505;28;20084;-69
2022/11/26 00:22:57;;;;;;;146.20;63.53;;;2.00;99.90;;;;;;5053777;28;20112;-69
2022/11/26 00:25:31;;;;;;;155.85;67.25;;;2.00;99.90;;;;;;5052412;28;20441;-74
2022/11/26 00:27:58;;;;;;;160.60;71.93;;;2.00;99.90;;;;;;5053648;28;20017;-69
2022/11/26 00:30:26;;;;;;;135.38;60.25;;;2.00;99.90;;;;;;5053361;28;20021;-74
2022/11/26 00:32:53;;;;;;;150.63;65.32;;;2.00;99.90;;;;;;5053531;28;20021;-74
2022/11/26 00:35:20;;;;;;;168.95;71.93;;;2.00;99.90;;;;;;5053323;28;20029;-69
2022/11/26 00:37:57;;;;;;;154.32;73.25;;;2.00;99.90;;;;;;5053437;28;20108;-73
2022/11/26 00:40:26;;;;;;;198.30;82.28;;;2.00;99.90;;;;;;5053291;28;20040;-73
2022/11/26 00:42:53;;;;;;;172.57;79.38;;;2.00;99.90;;;;;;5053283;28;20403;-70
2022/11/26 00:45:25;;;;;;;169.98;78.57;;;2.00;99.90;;;;;;5051885;28;20103;-69
2022/11/26 00:47:51;;;;;;;175.07;75.85;;;2.00;99.90;;;;;;5052135;28;20017;-70
2022/11/26 00:50:20;;;;;;;183.02;78.88;;;2.00;99.90;;;;;;5052563;28;20372;-74
2022/11/26 00:52:48;;;;;;;162.40;71.43;;;2.00;99.90;;;;;;5053231;28;20032;-69
2022/11/26 00:55:26;;;;;;;159.15;68.03;;;2.10;99.90;;;;;;5051882;28;20174;-69
2022/11/26 00:57:52;;;;;;;153.68;66.50;;;2.10;99.90;;;;;;5051861;28;20028;-74
2022/11/26 01:00:20;;;;;;;140.02;65.30;;;2.10;99.90;;;;;;5053077;28;20025;-69
2022/11/26 01:02:46;;;;;;;146.48;69.15;;;2.10;99.90;;;;;;5053218;28;20360;-74
2022/11/26 01:05:12;;;;;;;151.27;67.00;;;2.10;99.90;;;;;;5057796;28;20138;-73
2022/11/26 01:07:38;;;;;;;138.90;64.57;;;2.10;99.90;;;;;;5070788;28;20098;-74
2022/11/26 01:10:05;;;;;;;142.18;65.63;;;2.10;99.90;;;;;;5052900;28;20090;-74
2022/11/26 01:12:30;;;;;;;162.95;71.07;;;2.20;99.90;;;;;;5051874;28;20435;-70
2022/11/26 01:14:56;;;;;;;152.57;67.28;;;2.20;99.90;;;;;;5053160;28;20115;-70
2022/11/26 01:17:22;;;;;;;166.25;74.70;;;2.20;99.90;;;;;;5052960;28;20364;-70
2022/11/26 01:19:47;;;;;;;179.30;76.85;;;2.20;99.90;;;;;;5052906;28;20021;-74
2022/11/26 01:22:22;;;;;;;153.18;70.93;;;2.20;99.90;;;;;;5052797;28;20111;-70
2022/11/26 01:24:48;;;;;;;157.65;72.93;;;2.20;99.90;;;;;;5052944;28;20037;-69
2022/11/26 01:27:14;;;;;;;144.20;69.97;;;2.20;99.90;;;;;;5052871;28;20032;-74
2022/11/26 01:29:39;;;;;;;157.10;70.30;;;2.20;99.90;;;;;;5052853;28;20415;-74
2022/11/26 01:32:05;;;;;;;170.20;76.22;;;2.20;99.90;;;;;;5052928;28;20025;-74
2022/11/26 01:34:30;;;;;;;162.38;70.63;;;2.20;99.90;;;;;;5052794;28;20092;-69
2022/11/26 01:36:56;;;;;;;159.85;69.68;;;2.10;99.90;;;;;;5052852;28;20081;-71
2022/11/26 01:39:23;;;;;;;143.93;63.75;;;2.10;99.90;;;;;;5052774;28;20100;-74
2022/11/26 01:42:19;;;;;;;129.73;58.80;;;2.10;99.90;;;;;;5051507;28;20509;-74
2022/11/26 01:44:45;;;;;;;121.47;58.40;;;2.10;99.90;;;;;;5052338;28;20037;-74
2022/11/26 01:47:25;;;;;;;115.60;53.38;;;2.10;99.90;;;;;;5052850;28;20021;-72
2022/11/26 01:50:31;;;;;;;132.75;58.25;;;2.10;99.90;;;;;;5052658;28;20443;-69
2022/11/26 01:53:22;;;;;;;149.25;61.47;;;2.10;99.90;;;;;;5052676;28;20031;-75
2022/11/26 01:55:53;;;;;;;133.00;56.90;;;2.10;99.90;;;;;;5049751;28;20044;-69
2022/11/26 01:58:24;;;;;;;122.50;59.75;;;2.10;99.90;;;;;;5052652;28;20028;-69
2022/11/26 02:00:50;;;;;;;123.10;57.20;;;2.10;99.90;;;;;;5053007;28;20512;-74
2022/11/26 02:03:17;;;;;;;147.05;64.45;;;2.10;99.90;;;;;;5056191;28;20017;-75
2022/11/26 02:06:00;;;;;;;137.48;60.88;;;2.10;99.90;;;;;;5056167;28;20033;-74
2022/11/26 02:08:28;;;;;;;137.38;57.85;;;2.20;99.90;;;;;;5056186;28;20024;-74
2022/11/26 02:10:54;;;;;;;150.35;63.15;;;2.20;99.90;;;;;;5056182;28;20078;-69
2022/11/26 02:13:20;;;;;;;145.70;63.53;;;2.20;99.90;;;;;;5056136;28;20029;-71
2022/11/26 02:16:06;;;;;;;151.70;64.90;;;2.20;99.90;;;;;;5056288;28;20075;-70
2022/11/26 02:18:38;;;;;;;141.55;61.55;;;2.20;99.90;;;;;;5056037;28;20020;-74
2022/11/26 02:21:11;;;;;;;177.20;71.60;;;2.20;99.90;;;;;;5056019;28;20380;-75
2022/11/26 02:24:06;;;;;;;176.55;70.53;;;2.20;99.90;;;;;;5055928;28;20042;-74
2022/11/26 02:27:10;;;;;;;189.05;74.13;;;2.20;99.90;;;;;;5054649;28;20372;-70
2022/11/26 02:29:39;;;;;;;196.20;77.15;;;2.20;99.90;;;;;;5055759;28;20017;-74
2022/11/26 02:32:11;;;;;;;233.15;84.97;;;2.30;99.90;;;;;;5065561;28;20021;-74
2022/11/26 02:34:42;;;;;;;204.40;79.03;;;2.30;99.90;;;;;;5075721;28;20028;-69
2022/11/26 02:37:15;;;;;;;255.30;90.63;;;2.30;99.90;;;;;;5074567;28;20107;-69
2022/11/26 02:39:40;;;;;;;276.67;92.82;;;2.30;99.90;;;;;;5074477;28;20027;-74
2022/11/26 02:42:27;;;;;;;209.07;76.80;;;2.30;99.90;;;;;;5075863;28;20099;-70
2022/11/26 02:44:57;;;;;;;337.23;100.00;;;2.30;99.90;;;;;;5075502;28;20049;-74
2022/11/26 02:47:25;;;;;;;191.45;74.03;;;2.30;99.90;;;;;;5075297;28;20035;-75
2022/11/26 02:49:53;;;;;;;173.82;72.35;;;2.30;99.90;;;;;;5075471;28;20411;-69
2022/11/26 02:52:20;;;;;;;216.30;80.40;;;2.40;99.90;;;;;;5075364;28;20104;-69
2022/11/26 02:54:48;;;;;;;284.83;90.45;;;2.40;99.90;;;;;;5075467;28;20486;-74
2022/11/26 02:57:17;;;;;;;326.02;98.80;;;2.40;99.90;;;;;;5075228;28;20059;-74
2022/11/26 02:59:43;;;;;;;210.10;76.93;;;2.40;99.90;;;;;;5073698;28;20040;-70
2022/11/26 03:02:24;;;;;;;206.15;76.32;;;2.40;99.90;;;;;;5075246;28;20020;-70
2022/11/26 03:04:54;;;;;;;186.77;70.32;;;2.40;99.90;;;;;;5072674;28;20419;-70
2022/11/26 03:07:21;;;;;;;187.15;69.40;;;2.40;99.90;;;;;;5055136;28;20017;-74
2022/11/26 03:09:50;;;;;;;195.85;74.70;;;2.40;99.90;;;;;;5053801;28;20105;-74
2022/11/26 03:12:15;;;;;;;232.48;81.35;;;2.40;99.90;;;;;;5053158;28;20032;-69
2022/11/26 03:14:41;;;;;;;180.35;72.82;;;2.40;99.90;;;;;;5054891;28;20033;-69
2022/11/26 03:17:06;;;;;;;183.98;76.47;;;2.40;99.90;;;;;;5054776;28;20022;-70
2022/11/26 03:19:32;;;;;;;181.63;70.88;;;2.40;99.90;;;;;;5054663;28;20052;-69
2022/11/26 03:21:58;;;;;;;171.75;74.60;;;2.40;99.90;;;;;;5054635;28;20104;-74
2022/11/26 03:24:23;;;;;;;167.02;73.38;;;2.40;99.90;;;;;;5054663;28;20028;-74
2022/11/26 03:26:49;;;;;;;166.45;72.28;;;2.50;99.90;;;;;;5054831;28;20025;-74
2022/11/26 03:29:14;;;;;;;199.32;77.88;;;2.50;99.90;;;;;;5054589;28;20036;-69
2022/11/26 03:31:40;;;;;;;186.80;74.75;;;2.50;99.90;;;;;;5053412;28;20110;-70
2022/11/26 03:34:05;;;;;;;191.35;80.20;;;2.50;99.90;;;;;;5054449;28;20032;-74
2022/11/26 03:36:31;;;;;;;195.52;79.18;;;2.50;99.90;;;;;;5054601;28;20021;-74
2022/11/26 03:38:56;;;;;;;185.93;75.82;;;2.50;99.90;;;;;;5054523;28;20029;-74
2022/11/26 03:41:22;;;;;;;172.85;75.38;;;2.60;99.90;;;;;;5054502;28;20191;-75
2022/11/26 03:43:48;;;;;;;195.63;78.60;;;2.50;99.90;;;;;;5053017;28;20110;-74
2022/11/26 03:46:13;;;;;;;215.18;81.13;;;2.50;99.90;;;;;;5054532;28;20494;-74
2022/11/26 03:48:39;;;;;;;215.43;81.93;;;2.60;99.90;;;;;;5052952;28;20112;-74
2022/11/26 03:51:05;;;;;;;217.77;85.47;;;2.60;99.90;;;;;;5054390;28;20398;-74
2022/11/26 03:53:30;;;;;;;191.30;82.47;;;2.60;99.90;;;;;;5054207;28;20113;-70
2022/11/26 03:55:56;;;;;;;213.95;82.03;;;2.60;99.90;;;;;;5054212;28;20087;-74
2022/11/26 03:58:21;;;;;;;206.48;81.97;;;2.60;99.90;;;;;;5054074;28;20021;-70
2022/11/26 04:00:47;;;;;;;205.38;82.18;;;2.60;99.90;;;;;;5054091;28;20474;-74
2022/11/26 04:03:13;;;;;;;212.80;80.32;;;2.60;99.90;;;;;;5052716;28;20123;-71
2022/11/26 04:05:38;;;;;;;185.68;74.63;;;2.50;99.90;;;;;;5063395;28;20039;-70
2022/11/26 04:08:04;;;;;;;169.63;71.50;;;2.50;99.90;;;;;;5067009;28;20542;-70
2022/11/26 04:10:29;;;;;;;199.30;78.25;;;2.50;99.90;;;;;;5070966;28;20032;-69
2022/11/26 04:12:55;;;;;;;190.55;76.25;;;2.50;99.90;;;;;;5073794;28;20390;-70
2022/11/26 04:15:21;;;;;;;186.77;75.50;;;2.50;99.90;;;;;;5073861;28;20378;-70
2022/11/26 04:17:46;;;;;;;188.63;74.90;;;2.50;99.90;;;;;;5073663;28;20025;-74
2022/11/26 04:20:12;;;;;;;170.75;67.90;;;2.50;99.90;;;;;;5072448;28;20025;-70
2022/11/26 04:22:38;;;;;;;184.57;67.10;;;2.50;99.90;;;;;;5072364;28;20028;-70
2022/11/26 04:25:04;;;;;;;185.00;70.10;;;2.50;99.90;;;;;;5071513;28;20031;-70
2022/11/26 04:27:29;;;;;;;199.65;69.55;;;2.40;99.90;;;;;;5073568;28;20025;-70
2022/11/26 04:29:55;;;;;;;208.82;69.45;;;2.40;99.90;;;;;;5065933;28;20020;-69
2022/11/26 04:32:20;;;;;;;202.68;68.20;;;2.40;99.90;;;;;;5053606;28;20029;-74
2022/11/26 04:34:46;;;;;;;168.48;63.03;;;2.30;99.90;;;;;;5053465;28;20017;-74
2022/11/26 04:37:11;;;;;;;170.35;63.05;;;2.30;99.90;;;;;;5052216;28;20021;-74
2022/11/26 04:39:37;;;;;;;186.65;64.72;;;2.30;99.90;;;;;;5053378;28;20040;-74
2022/11/26 04:42:03;;;;;;;167.27;64.07;;;2.30;99.90;;;;;;5053469;28;20025;-74
2022/11/26 04:44:28;;;;;;;295.00;78.10;;;2.30;99.90;;;;;;5056656;28;20052;-74
2022/11/26 04:46:54;;;;;;;210.13;65.15;;;2.30;99.90;;;;;;5073429;28;20028;-74
2022/11/26 04:49:19;;;;;;;236.70;73.70;;;2.30;99.90;;;;;;5071830;28;20031;-74
2022/11/26 04:51:45;;;;;;;351.15;81.43;;;2.30;99.90;;;;;;5073515;28;20027;-74
2022/11/26 04:54:10;;;;;;;319.77;78.75;;;2.30;99.90;;;;;;5073131;28;20024;-74
2022/11/26 04:56:36;;;;;;;416.98;90.35;;;2.30;99.90;;;;;;5072083;28;20021;-74
2022/11/26 04:59:02;;;;;;;529.30;101.95;;;2.20;99.90;;;;;;5071884;28;20016;-75
2022/11/26 05:01:27;;;;;;;399.73;84.95;;;2.20;99.90;;;;;;5071828;28;20053;-70
2022/11/26 05:03:53;;;;;;;471.05;104.90;;;2.20;99.90;;;;;;5073089;28;20052;-74
2022/11/26 05:06:18;;;;;;;423.55;94.10;;;2.10;99.90;;;;;;5057610;28;20025;-69
2022/11/26 05:08:44;;;;;;;443.38;91.78;;;2.20;99.90;;;;;;5053031;28;20021;-74
2022/11/26 05:11:09;;;;;;;474.00;101.03;;;2.10;99.90;;;;;;5053190;28;20048;-74
2022/11/26 05:13:35;;;;;;;359.38;75.32;;;2.10;99.90;;;;;;5051729;28;20115;-71
2022/11/26 05:16:01;;;;;;;289.70;74.50;;;2.10;99.90;;;;;;5053057;28;20113;-74
2022/11/26 05:18:26;;;;;;;526.92;106.38;;;2.10;99.90;;;;;;5059729;28;20036;-71
2022/11/26 05:20:52;;;;;;;310.05;77.30;;;2.10;99.90;;;;;;5071781;28;20047;-74
2022/11/26 05:23:17;;;;;;;302.23;75.30;;;2.10;99.90;;;;;;5071764;28;20021;-70
2022/11/26 05:25:43;;;;;;;524.00;103.53;;;2.10;99.90;;;;;;5072841;28;20063;-70
2022/11/26 05:28:08;;;;;;;517.05;103.53;;;2.10;99.90;;;;;;5071797;28;20021;-70
2022/11/26 05:30:35;;;;;;;277.90;68.68;;;2.10;99.90;;;;;;5072762;28;20035;-75
2022/11/26 05:33:00;;;;;;;514.35;97.32;;;2.00;99.90;;;;;;5072917;28;20355;-71
2022/11/26 05:35:26;;;;;;;404.88;78.68;;;2.10;99.90;;;;;;5073865;28;20077;-74
2022/11/26 05:37:51;;;;;;;434.25;85.75;;;2.00;99.90;;;;;;5075541;28;20029;-71
2022/11/26 05:40:17;;;;;;;145.55;51.05;;;2.00;99.90;;;;;;5075443;28;20035;-75
2022/11/26 05:42:43;;;;;;;141.02;49.65;;;2.10;99.90;;;;;;5075454;28;20064;-70
2022/11/26 05:45:09;;;;;;;182.80;51.30;;;2.10;99.90;;;;;;5076619;28;20401;-69
2022/11/26 05:47:34;;;;;;;236.00;63.00;;;2.10;99.90;;;;;;5059571;28;20028;-74
2022/11/26 05:50:00;;;;;;;233.57;63.40;;;2.10;99.90;;;;;;5055085;28;20457;-74
2022/11/26 05:52:26;;;;;;;185.40;50.65;;;2.10;99.90;;;;;;5055282;28;20486;-75
2022/11/26 05:54:51;;;;;;;219.20;59.67;;;2.10;99.90;;;;;;5056478;28;20057;-70
2022/11/26 05:57:18;;;;;;;183.68;51.08;;;2.10;99.90;;;;;;5056396;28;20429;-74
2022/11/26 05:59:47;;;;;;;289.65;68.00;;;2.00;99.90;;;;;;5056360;28;20028;-74
2022/11/26 06:02:12;;;;;;;218.90;56.00;;;2.00;99.90;;;;;;5056555;28;20082;-74
2022/11/26 06:04:38;;;;;;;136.57;48.72;;;2.00;99.90;;;;;;5057956;28;20033;-74
2022/11/26 06:07:03;;;;;;;340.30;71.35;;;2.00;99.90;;;;;;5065082;28;20024;-74
2022/11/26 06:09:29;;;;;;;232.52;53.30;;;2.00;99.90;;;;;;5056045;28;20029;-74
2022/11/26 06:11:55;;;;;;;250.20;55.53;;;2.00;99.90;;;;;;5056270;28;20021;-74
2022/11/26 06:14:20;;;;;;;253.23;53.33;;;1.90;99.90;;;;;;5056025;28;20056;-74
2022/11/26 06:16:46;;;;;;;248.68;55.60;;;1.80;99.90;;;;;;5056382;28;20036;-74
2022/11/26 06:19:12;;;;;;;118.95;38.85;;;1.80;99.90;;;;;;5054605;28;20032;-69
2022/11/26 06:21:37;;;;;;;176.60;47.72;;;1.80;99.90;;;;;;5055922;28;20036;-70
2022/11/26 06:24:03;;;;;;;280.55;60.67;;;1.80;99.90;;;;;;5055855;28;20106;-69
2022/11/26 06:26:29;;;;;;;209.43;52.53;;;1.70;99.90;;;;;;5055913;28;20031;-74
2022/11/26 06:28:55;;;;;;;236.30;50.85;;;1.70;99.90;;;;;;5055949;28;20029;-71
2022/11/26 06:31:20;;;;;;;353.17;62.42;;;1.70;99.90;;;;;;5055367;28;20414;-74
2022/11/26 06:33:46;;;;;;;186.07;48.83;;;1.70;99.90;;;;;;5055813;28;20025;-74
2022/11/26 06:36:12;;;;;;;233.50;56.95;;;1.70;99.90;;;;;;5054365;28;20024;-69
2022/11/26 06:38:37;;;;;;;210.35;50.67;;;1.60;99.90;;;;;;5055695;28;20021;-71
2022/11/26 06:41:05;;;;;;;266.88;55.72;;;1.70;99.90;;;;;;5055594;28;20398;-74
2022/11/26 06:43:31;;;;;;;335.88;71.35;;;1.70;99.90;;;;;;5055487;28;20130;-74
2022/11/26 06:46:02;;;;;;;329.00;67.93;;;1.60;99.90;;;;;;5055377;28;20498;-70
2022/11/26 06:48:29;;;;;;;244.82;55.53;;;1.70;99.90;;;;;;5053521;28;20075;-74
2022/11/26 06:50:54;;;;;;;387.75;74.97;;;1.70;99.90;;;;;;5055330;28;20053;-74
2022/11/26 06:53:20;;;;;;;137.70;46.25;;;1.60;99.90;;;;;;5054083;28;20023;-69
2022/11/26 06:55:45;;;;;;;277.48;56.20;;;1.60;99.90;;;;;;5055138;28;20421;-75
2022/11/26 06:58:13;;;;;;;202.73;53.63;;;1.60;99.90;;;;;;5055417;28;20021;-71
2022/11/26 07:00:39;;;;;;;231.45;50.72;;;1.60;99.90;;;;;;5055150;28;20530;-74
2022/11/26 07:03:05;;;;;;;108.88;37.95;;;1.70;99.90;;;;;;5063538;28;20039;-69
2022/11/26 07:05:33;;;;;;;226.00;50.95;;;1.70;99.90;;;;;;5065391;28;20395;-75
2022/11/26 07:07:59;;;;;;;156.80;44.13;;;1.70;99.90;;;;;;5055178;28;20092;-74
2022/11/26 07:10:25;;;;;;;327.55;66.03;;;1.70;99.90;;;;;;5054934;28;20103;-70
2022/11/26 07:12:50;;;;;;;320.83;65.20;;;1.80;99.90;;;;;;5055004;28;20032;-75
2022/11/26 07:15:16;;;;;;;331.98;61.40;;;1.70;99.90;;;;;;5055026;28;20049;-74
2022/11/26 07:17:41;;;;;;;344.58;68.80;;;1.70;99.90;;;;;;5054944;28;20056;-75
2022/11/26 07:20:07;;;;;;;375.25;69.60;;;1.80;99.90;;;;;;5054739;28;20466;-75
2022/11/26 07:22:34;;;;;;;257.30;52.72;;;1.70;99.90;;;;;;5054129;28;20083;-69
2022/11/26 07:24:59;;;;;;;279.17;57.83;;;1.80;99.90;;;;;;5042226;28;20131;-68
2022/11/26 07:27:25;;;;;;;210.02;53.42;;;1.80;99.90;;;;;;5034592;28;20177;-69
2022/11/26 07:29:51;;;;;;;116.65;41.00;;;1.80;99.90;;;;;;5034641;28;20033;-69
2022/11/26 07:32:16;;;;;;;281.92;64.13;;;1.80;99.90;;;;;;5033400;28;20013;-69
2022/11/26 07:34:42;;;;;;;128.82;40.03;;;1.90;99.90;;;;;;5034727;28;20022;-68
2022/11/26 07:37:08;;;;;;;146.50;45.90;;;1.90;99.90;;;;;;5033157;28;20159;-69
2022/11/26 07:39:33;;;;;;;138.10;43.72;;;1.90;99.90;;;;;;5039541;28;20032;-69
2022/11/26 07:41:59;;;;;;;137.40;43.10;;;1.90;99.90;;;;;;5045120;28;20024;-70
2022/11/26 07:44:24;;;;;;;139.60;45.42;;;1.80;99.90;;;;;;5047493;28;20118;-70
2022/11/26 07:46:50;;;;;;;128.45;41.20;;;1.90;99.90;;;;;;5034238;28;20018;-69
2022/11/26 07:49:15;;;;;;;113.97;42.45;;;1.80;99.90;;;;;;5034116;28;20467;-69
2022/11/26 07:51:41;;;;;;;184.23;54.53;;;1.90;99.90;;;;;;5034085;28;20053;-71
2022/11/26 07:54:08;;;;;;;116.32;42.38;;;1.90;99.90;;;;;;5034093;28;20053;-70
2022/11/26 07:56:34;;;;;;;145.60;47.67;;;1.90;99.90;;;;;;5034215;28;20057;-69
2022/11/26 07:59:00;;;;;;;149.48;50.63;;;2.00;99.90;;;;;;5034122;28;20427;-70
2022/11/26 08:01:28;;;;;;;117.55;43.78;;;2.00;99.90;;;;;;5033969;28;20539;-71
2022/11/26 08:03:55;;;;;;;103.07;42.55;;;2.00;99.90;;;;;;5033988;28;20105;-71
2022/11/26 08:06:27;;;;;;;136.70;44.35;;;2.10;99.90;;;;;;5067230;28;20074;-69
2022/11/26 08:08:52;;;;;;;98.33;38.93;;;2.20;99.90;;;;;;5059037;28;20548;-70
2022/11/26 08:11:23;;;;;;;132.70;45.85;;;2.20;99.90;;;;;;5053783;28;20033;-70
2022/11/26 08:13:55;;;;;;;128.60;43.35;;;2.20;99.90;;;;;;5052410;28;20036;-69
2022/11/26 08:16:20;;;;;;;127.22;46.50;;;2.20;99.90;;;;;;5053738;28;20036;-69
2022/11/26 08:18:46;;;;;;;124.97;47.33;;;2.20;99.90;;;;;;5053626;28;20021;-70
2022/11/26 08:21:11;;;;;;;114.68;41.95;;;2.30;99.90;;;;;;5053499;28;20068;-69
2022/11/26 08:23:38;;;;;;;141.60;44.85;;;2.30;99.90;;;;;;5053498;28;20028;-70
2022/11/26 08:26:09;;;;;;;136.40;46.20;;;2.30;99.90;;;;;;5053414;28;20461;-69
2022/11/26 08:28:35;;;;;;;135.63;48.83;;;2.30;99.90;;;;;;5053369;28;20017;-70
2022/11/26 08:31:07;;;;;;;101.35;40.50;;;2.40;99.90;;;;;;5053344;28;20029;-69
2022/11/26 08:33:32;;;;;;;119.10;43.80;;;2.40;99.90;;;;;;5047318;28;20031;-71
2022/11/26 08:35:58;;;;;;;110.07;43.05;;;2.40;99.90;;;;;;5044055;28;20029;-69
2022/11/26 08:38:26;;;;;;;111.82;42.65;;;2.40;99.90;;;;;;5035913;28;20032;-70
2022/11/26 08:40:53;;;;;;;109.82;47.95;;;2.50;99.90;;;;;;5033412;28;20022;-69
2022/11/26 08:43:19;;;;;;;112.65;47.45;;;2.50;99.90;;;;;;5031995;28;20057;-69
2022/11/26 08:45:54;;;;;;;113.72;47.00;;;2.50;99.90;;;;;;5033161;28;20154;-70
2022/11/26 08:48:21;;;;;;;108.93;46.38;;;2.60;99.90;;;;;;5060043;28;20031;-69
2022/11/26 08:50:47;;;;;;;108.15;47.53;;;2.60;99.90;;;;;;5073320;28;20531;-70
2022/11/26 08:53:13;;;;;;;117.00;49.20;;;2.60;99.90;;;;;;5073216;28;20024;-69
2022/11/26 08:55:38;;;;;;;110.53;48.78;;;2.60;99.90;;;;;;5071861;28;20024;-71
2022/11/26 08:58:04;;;;;;;112.38;47.33;;;2.70;99.90;;;;;;5073173;28;20025;-71
2022/11/26 09:00:29;;;;;;;116.32;48.42;;;2.70;99.90;;;;;;5073225;28;20092;-69
2022/11/26 09:02:55;;;;;;;112.22;45.05;;;2.70;99.90;;;;;;5073173;28;20020;-70
2022/11/26 09:05:20;;;;;;;109.90;47.65;;;2.70;99.90;;;;;;5064289;28;20475;-69
2022/11/26 09:07:46;;;;;;;121.13;51.47;;;2.70;99.90;;;;;;5043739;28;20458;-70
2022/11/26 09:10:12;;;;;;;128.15;51.03;;;2.80;99.90;;;;;;5049454;28;20025;-71
2022/11/26 09:12:37;;;;;;;115.72;52.42;;;2.90;99.90;;;;;;5048441;28;20017;-71
2022/11/26 09:15:03;;;;;;;115.50;50.05;;;2.90;99.90;;;;;;5036178;28;20039;-71
2022/11/26 09:17:29;;;;;;;122.68;51.67;;;2.90;99.90;;;;;;5041229;28;20014;-71
2022/11/26 09:19:55;;;;;;;132.77;56.20;;;3.00;99.90;;;;;;5033500;28;20091;-71
2022/11/26 09:22:21;;;;;;;131.70;54.63;;;3.00;99.90;;;;;;5040018;28;20067;-71
2022/11/26 09:24:47;;;;;;;127.32;56.60;;;3.10;99.90;;;;;;5040685;28;20033;-71
2022/11/26 09:27:13;;;;;;;136.95;55.35;;;3.10;99.90;;;;;;5038975;28;20079;-71
2022/11/26 09:29:38;;;;;;;133.40;57.40;;;3.20;99.90;;;;;;5032980;28;20034;-69
2022/11/26 09:32:04;;;;;;;133.48;57.60;;;3.20;99.90;;;;;;5033034;28;20018;-70
2022/11/26 09:34:30;;;;;;;121.57;53.70;;;3.30;99.90;;;;;;5037448;28;20022;-71
2022/11/26 09:36:55;;;;;;;113.60;53.40;;;3.40;99.90;;;;;;5032995;28;20049;-71
2022/11/26 09:39:21;;;;;;;121.15;56.15;;;3.30;99.90;;;;;;5031574;28;20100;-69
2022/11/26 09:41:55;;;;;;;125.63;54.80;;;3.40;99.90;;;;;;5032898;28;20391;-71
2022/11/26 09:44:45;;;;;;;119.78;52.45;;;3.40;99.90;;;;;;5032446;28;20095;-71
2022/11/26 09:47:21;;;;;;;112.68;52.83;;;3.50;99.90;;;;;;5032946;28;20024;-70
2022/11/26 09:50:05;;;;;;;114.10;49.53;;;3.50;99.90;;;;;;5032699;28;20018;-71
2022/11/26 09:52:42;;;;;;;128.35;53.33;;;3.50;99.90;;;;;;5032597;28;20072;-69
2022/11/26 09:55:21;;;;;;;132.20;56.25;;;3.50;99.90;;;;;;5032773;28;20040;-69
2022/11/26 09:58:13;;;;;;;138.32;61.33;;;3.60;99.90;;;;;;5031339;28;20475;-69
2022/11/26 10:00:42;;;;;;;185.23;90.10;;;3.60;99.90;;;;;;5031529;28;20031;-71
2022/11/26 10:03:32;;;;;;;139.07;63.83;;;3.60;99.90;;;;;;5032793;28;20045;-69
2022/11/26 10:06:24;;;;;;;184.57;85.28;;;3.50;99.90;;;;;;5041773;28;20099;-71
2022/11/26 10:09:08;;;;;;;195.02;88.72;;;3.50;99.90;;;;;;5058012;28;20396;-71
2022/11/26 10:12:12;;;;;;;180.18;80.15;;;3.50;99.90;;;;;;5070281;28;20040;-71
2022/11/26 10:14:48;;;;;;;184.95;77.43;;;3.50;99.90;;;;;;5059497;28;20059;-69
2022/11/26 10:17:28;;;;;;;172.77;77.18;;;3.50;99.90;;;;;;5071763;28;20049;-68
2022/11/26 10:20:32;;;;;;;172.88;75.13;;;3.50;99.90;;;;;;5054550;28;20711;-69
2022/11/26 10:23:01;;;;;;;177.95;80.63;;;3.50;99.90;;;;;;5051512;28;20091;-69
2022/11/26 10:25:32;;;;;;;164.18;76.10;;;3.40;99.90;;;;;;5051403;28;20064;-69
2022/11/26 10:27:58;;;;;;;176.60;80.32;;;3.40;99.90;;;;;;5055106;28;20029;-69
2022/11/26 10:30:27;;;;;;;205.57;90.85;;;3.40;99.90;;;;;;5057468;28;20035;-70
2022/11/26 10:32:54;;;;;;;178.93;82.85;;;3.50;99.90;;;;;;5054912;28;20103;-72
2022/11/26 10:35:27;;;;;;;158.10;74.80;;;3.50;99.90;;;;;;5056192;28;20467;-71
2022/11/26 10:37:55;;;;;;;205.68;84.65;;;3.50;99.90;;;;;;5053616;28;20021;-72
2022/11/26 10:40:24;;;;;;;200.70;85.32;;;3.50;99.90;;;;;;5054439;28;20113;-71
2022/11/26 10:43:08;;;;;;;190.55;85.50;;;3.60;99.90;;;;;;5054534;28;20461;-71
2022/11/26 10:45:46;;;;;;;201.18;88.22;;;3.60;99.90;;;;;;5053130;28;20048;-71
2022/11/26 10:48:33;;;;;;;277.35;108.43;;;3.60;99.90;;;;;;5054589;28;20017;-72
2022/11/26 10:51:17;;;;;;;292.50;110.88;;;3.60;99.90;;;;;;5051202;28;20052;-71
2022/11/26 10:53:51;;;;;;;357.27;129.75;;;3.50;99.90;;;;;;5054479;28;20025;-71
2022/11/26 10:56:19;;;;;;;338.60;131.00;;;3.50;99.90;;;;;;5053986;28;20025;-70
2022/11/26 10:58:47;;;;;;;434.20;150.95;;;3.50;99.90;;;;;;5051928;28;20017;-69
2022/11/26 11:01:14;;;;;;;363.05;126.78;;;3.50;99.90;;;;;;5054392;28;20028;-69
2022/11/26 11:03:49;;;;;;;523.15;201.45;;;3.60;99.90;;;;;;5054350;28;20025;-69
2022/11/26 11:06:17;;;;;;;427.80;160.20;;;3.50;99.90;;;;;;5058091;28;20029;-69
2022/11/26 11:08:44;;;;;;;413.95;144.02;;;3.60;99.90;;;;;;5053949;28;20051;-69
2022/11/26 11:11:30;;;;;;;275.33;109.68;;;3.60;99.90;;;;;;5054202;28;20037;-69
2022/11/26 11:13:56;;;;;;;202.65;80.72;;;3.60;99.90;;;;;;5054184;28;20382;-69
2022/11/26 11:16:22;;;;;;;300.35;104.13;;;3.60;99.90;;;;;;5053163;28;20075;-71
2022/11/26 11:18:50;;;;;;;214.18;85.78;;;3.60;99.90;;;;;;5035608;28;20022;-70
2022/11/26 11:21:19;;;;;;;300.67;107.53;;;3.60;99.90;;;;;;5049015;28;20112;-71
2022/11/26 11:23:44;;;;;;;476.70;166.00;;;3.60;99.90;;;;;;5053836;28;20021;-71
2022/11/26 11:26:21;;;;;;;272.65;97.30;;;3.50;99.90;;;;;;5053801;28;20040;-71
2022/11/26 11:28:54;;;;;;;239.68;93.70;;;3.60;99.90;;;;;;5054222;28;20075;-68
2022/11/26 11:31:27;;;;;;;319.52;98.95;;;3.60;99.90;;;;;;5047133;28;20025;-71
2022/11/26 11:34:12;;;;;;;252.55;86.28;;;3.60;99.90;;;;;;5055373;28;20464;-71
2022/11/26 11:36:38;;;;;;;225.60;78.60;;;3.60;99.90;;;;;;5058810;28;20037;-71
2022/11/26 11:39:04;;;;;;;364.77;118.63;;;3.70;99.90;;;;;;5050667;28;20383;-71
2022/11/26 11:41:50;;;;;;;380.33;125.95;;;3.70;99.90;;;;;;5054806;28;20043;-71
2022/11/26 11:44:23;;;;;;;239.98;77.97;;;3.70;99.90;;;;;;5044145;28;20494;-72
2022/11/26 11:47:13;;;;;;;309.90;114.85;;;3.70;99.90;;;;;;5052402;28;20041;-71
2022/11/26 11:49:48;;;;;;;405.98;146.90;;;3.70;99.90;;;;;;5054493;28;20449;-72
2022/11/26 11:52:16;;;;;;;281.17;92.80;;;3.70;99.90;;;;;;5052478;28;20232;-70
2022/11/26 11:55:08;;;;;;;288.95;81.68;;;3.70;99.90;;;;;;5052170;28;20025;-69
2022/11/26 11:57:52;;;;;;;442.85;172.27;;;3.70;99.90;;;;;;5049268;28;20063;-70
2022/11/26 12:00:20;;;;;;;339.55;116.32;;;3.70;99.90;;;;;;5052957;28;20033;-69
2022/11/26 12:03:10;;;;;;;258.60;79.60;;;3.70;99.90;;;;;;5053424;28;20021;-71
2022/11/26 12:06:05;;;;;;;408.40;118.65;;;3.70;99.90;;;;;;5053320;28;20119;-71
2022/11/26 12:09:00;;;;;;;347.35;120.50;;;3.70;99.90;;;;;;5044443;28;20083;-69
2022/11/26 12:11:50;;;;;;;248.13;79.68;;;3.70;99.90;;;;;;5052955;28;20069;-71
2022/11/26 12:14:22;;;;;;;419.83;100.57;;;3.70;99.90;;;;;;5047350;28;20048;-69
2022/11/26 12:16:53;;;;;;;280.27;82.18;;;3.80;99.90;;;;;;5054190;28;20040;-69
2022/11/26 12:19:35;;;;;;;333.42;115.30;;;3.80;99.90;;;;;;5054884;28;20024;-69
2022/11/26 12:22:13;;;;;;;337.53;98.20;;;3.80;99.90;;;;;;5054283;28;20060;-69
2022/11/26 12:24:44;;;;;;;353.70;92.25;;;3.80;99.90;;;;;;5065893;28;20071;-69
2022/11/26 12:27:31;;;;;;;291.17;88.68;;;3.80;99.90;;;;;;5053493;28;20032;-69
2022/11/26 12:30:03;;;;;;;446.67;146.80;;;3.80;99.90;;;;;;5053017;28;20017;-70
2022/11/26 12:32:45;;;;;;;493.20;149.82;;;3.80;99.90;;;;;;5052580;28;20123;-70
2022/11/26 12:35:35;;;;;;;376.92;109.68;;;3.80;99.90;;;;;;5068705;28;20503;-69
2022/11/26 12:38:24;;;;;;;248.38;74.43;;;3.80;99.90;;;;;;5070745;28;20067;-69